sensor_id;sensor_type;location;lat;lon;timestamp;pressure;altitude;pressure_sealevel;temperature;humidity
34696;BME280;20918;51.138;17.370;2022-10-31T00:02:13;100518.73;;;7.88;81.46
34696;BME280;20918;51.138;17.370;2022-10-31T00:05:14;100525.61;;;7.84;81.34
34696;BME280;20918;51.138;17.370;2022-10-31T00:08:16;100528.69;;;7.80;81.48
34696;BME280;20918;51.138;17.370;2022-10-31T00:11:20;100533.27;;;7.78;81.56
34696;BME280;20918;51.138;17.370;2022-10-31T00:14:22;100526.66;;;7.78;81.80
34696;BME280;20918;51.138;17.370;2022-10-31T00:17:23;100528.05;;;7.72;81.79
34696;BME280;20918;51.138;17.370;2022-10-31T00:20:24;100525.32;;;7.68;81.88
34696;BME280;20918;51.138;17.370;2022-10-31T00:23:25;100531.71;;;7.66;81.73
34696;BME280;20918;51.138;17.370;2022-10-31T00:26:29;100524.06;;;7.62;81.69
34696;BME280;20918;51.138;17.370;2022-10-31T00:29:32;100531.66;;;7.61;81.97
34696;BME280;20918;51.138;17.370;2022-10-31T00:32:33;100531.93;;;7.58;81.64
34696;BME280;20918;51.138;17.370;2022-10-31T00:35:34;100533.38;;;7.57;81.73
34696;BME280;20918;51.138;17.370;2022-10-31T00:38:35;100529.47;;;7.51;81.49
34696;BME280;20918;51.138;17.370;2022-10-31T00:41:36;100532.88;;;7.48;81.42
34696;BME280;20918;51.138;17.370;2022-10-31T00:44:39;100530.85;;;7.46;81.34
34696;BME280;20918;51.138;17.370;2022-10-31T00:47:40;100531.41;;;7.39;81.63
34696;BME280;20918;51.138;17.370;2022-10-31T00:50:41;100539.38;;;7.34;81.62
34696;BME280;20918;51.138;17.370;2022-10-31T00:53:43;100543.77;;;7.29;81.56
34696;BME280;20918;51.138;17.370;2022-10-31T00:56:44;100540.69;;;7.24;81.99
34696;BME280;20918;51.138;17.370;2022-10-31T00:59:45;100537.56;;;7.25;82.00
34696;BME280;20918;51.138;17.370;2022-10-31T01:02:46;100528.87;;;7.18;82.01
34696;BME280;20918;51.138;17.370;2022-10-31T01:06:06;100532.61;;;7.16;82.01
34696;BME280;20918;51.138;17.370;2022-10-31T01:09:08;100532.39;;;7.13;81.95
34696;BME280;20918;51.138;17.370;2022-10-31T01:12:12;100532.66;;;7.10;82.02
34696;BME280;20918;51.138;17.370;2022-10-31T01:15:19;100536.25;;;7.09;82.04
34696;BME280;20918;51.138;17.370;2022-10-31T01:18:23;100535.57;;;7.07;81.80
34696;BME280;20918;51.138;17.370;2022-10-31T01:21:27;100537.50;;;7.05;81.72
34696;BME280;20918;51.138;17.370;2022-10-31T01:24:31;100534.08;;;6.99;81.39
34696;BME280;20918;51.138;17.370;2022-10-31T01:27:32;100546.83;;;6.94;81.21
34696;BME280;20918;51.138;17.370;2022-10-31T01:30:34;100543.26;;;6.89;81.33
34696;BME280;20918;51.138;17.370;2022-10-31T01:33:36;100548.69;;;6.88;81.41
34696;BME280;20918;51.138;17.370;2022-10-31T01:36:40;100544.51;;;6.85;81.52
34696;BME280;20918;51.138;17.370;2022-10-31T01:39:43;100547.04;;;6.81;81.26
34696;BME280;20918;51.138;17.370;2022-10-31T01:42:45;100545.04;;;6.79;81.36
34696;BME280;20918;51.138;17.370;2022-10-31T01:45:54;100545.16;;;6.78;81.49
34696;BME280;20918;51.138;17.370;2022-10-31T01:49:00;100545.72;;;6.81;81.74
34696;BME280;20918;51.138;17.370;2022-10-31T01:55:31;100552.20;;;6.83;82.16
34696;BME280;20918;51.138;17.370;2022-10-31T01:58:34;100546.66;;;6.86;82.24
34696;BME280;20918;51.138;17.370;2022-10-31T02:01:35;100543.80;;;6.83;82.30
34696;BME280;20918;51.138;17.370;2022-10-31T02:04:38;100537.69;;;6.83;82.25
34696;BME280;20918;51.138;17.370;2022-10-31T02:08:02;100539.98;;;6.82;82.12
34696;BME280;20918;51.138;17.370;2022-10-31T02:10:58;100544.77;;;6.82;82.03
34696;BME280;20918;51.138;17.370;2022-10-31T02:14:02;100551.75;;;6.78;81.74
34696;BME280;20918;51.138;17.370;2022-10-31T02:17:03;100549.27;;;6.76;81.66
34696;BME280;20918;51.138;17.370;2022-10-31T02:30:17;100555.90;;;6.70;81.62
34696;BME280;20918;51.138;17.370;2022-10-31T02:33:48;100557.25;;;6.65;81.67
34696;BME280;20918;51.138;17.370;2022-10-31T02:40:21;100549.80;;;6.49;81.66
34696;BME280;20918;51.138;17.370;2022-10-31T02:43:52;100556.73;;;6.50;81.93
34696;BME280;20918;51.138;17.370;2022-10-31T02:47:18;100560.46;;;6.47;81.53
34696;BME280;20918;51.138;17.370;2022-10-31T02:50:32;100565.66;;;6.43;81.51
34696;BME280;20918;51.138;17.370;2022-10-31T02:53:37;100562.79;;;6.41;81.60
34696;BME280;20918;51.138;17.370;2022-10-31T02:56:40;100564.97;;;6.36;82.08
34696;BME280;20918;51.138;17.370;2022-10-31T02:59:48;100566.28;;;6.36;82.28
34696;BME280;20918;51.138;17.370;2022-10-31T03:06:29;100559.05;;;6.28;82.15
34696;BME280;20918;51.138;17.370;2022-10-31T03:16:40;100565.89;;;6.19;82.98
34696;BME280;20918;51.138;17.370;2022-10-31T03:19:45;100567.69;;;6.19;82.83
34696;BME280;20918;51.138;17.370;2022-10-31T03:22:48;100566.14;;;6.16;82.71
34696;BME280;20918;51.138;17.370;2022-10-31T03:25:52;100573.84;;;6.08;82.99
34696;BME280;20918;51.138;17.370;2022-10-31T03:29:07;100577.82;;;6.02;82.98
34696;BME280;20918;51.138;17.370;2022-10-31T03:32:20;100583.58;;;6.02;83.11
34696;BME280;20918;51.138;17.370;2022-10-31T03:35:22;100574.36;;;6.02;82.82
34696;BME280;20918;51.138;17.370;2022-10-31T03:38:25;100584.78;;;6.03;82.83
34696;BME280;20918;51.138;17.370;2022-10-31T03:41:31;100588.50;;;6.01;82.54
34696;BME280;20918;51.138;17.370;2022-10-31T03:44:34;100591.86;;;6.03;82.83
34696;BME280;20918;51.138;17.370;2022-10-31T03:47:37;100588.36;;;6.02;82.60
34696;BME280;20918;51.138;17.370;2022-10-31T03:50:47;100585.38;;;6.01;82.54
34696;BME280;20918;51.138;17.370;2022-10-31T03:53:57;100591.97;;;6.01;82.53
34696;BME280;20918;51.138;17.370;2022-10-31T03:57:13;100588.16;;;6.00;82.48
34696;BME280;20918;51.138;17.370;2022-10-31T04:00:33;100589.81;;;6.01;82.48
34696;BME280;20918;51.138;17.370;2022-10-31T04:03:37;100593.17;;;6.03;82.52
34696;BME280;20918;51.138;17.370;2022-10-31T04:06:41;100593.77;;;6.01;82.50
34696;BME280;20918;51.138;17.370;2022-10-31T04:09:45;100591.25;;;5.99;82.52
34696;BME280;20918;51.138;17.370;2022-10-31T04:12:54;100596.06;;;6.00;82.55
34696;BME280;20918;51.138;17.370;2022-10-31T04:15:57;100594.02;;;5.98;82.48
34696;BME280;20918;51.138;17.370;2022-10-31T04:19:00;100597.26;;;5.96;82.47
34696;BME280;20918;51.138;17.370;2022-10-31T04:22:01;100591.27;;;5.94;82.38
34696;BME280;20918;51.138;17.370;2022-10-31T04:25:02;100591.75;;;5.93;82.41
34696;BME280;20918;51.138;17.370;2022-10-31T04:28:03;100592.20;;;5.93;82.32
34696;BME280;20918;51.138;17.370;2022-10-31T04:31:04;100590.89;;;5.93;82.44
34696;BME280;20918;51.138;17.370;2022-10-31T04:34:07;100592.20;;;5.93;82.32
34696;BME280;20918;51.138;17.370;2022-10-31T04:37:08;100593.18;;;5.92;82.56
34696;BME280;20918;51.138;17.370;2022-10-31T04:40:11;100598.22;;;5.89;82.55
34696;BME280;20918;51.138;17.370;2022-10-31T04:43:12;100600.96;;;5.88;82.89
34696;BME280;20918;51.138;17.370;2022-10-31T04:46:17;100604.42;;;5.88;82.91
34696;BME280;20918;51.138;17.370;2022-10-31T04:49:18;100607.20;;;5.87;82.66
34696;BME280;20918;51.138;17.370;2022-10-31T04:52:19;100603.84;;;5.84;82.49
34696;BME280;20918;51.138;17.370;2022-10-31T04:55:20;100614.14;;;5.82;82.61
34696;BME280;20918;51.138;17.370;2022-10-31T04:58:21;100612.84;;;5.76;82.80
34696;BME280;20918;51.138;17.370;2022-10-31T05:01:23;100607.34;;;5.74;83.01
34696;BME280;20918;51.138;17.370;2022-10-31T05:04:24;100605.44;;;5.70;83.04
34696;BME280;20918;51.138;17.370;2022-10-31T05:07:25;100607.49;;;5.67;82.91
34696;BME280;20918;51.138;17.370;2022-10-31T05:10:29;100613.25;;;5.66;82.79
34696;BME280;20918;51.138;17.370;2022-10-31T05:13:33;100607.74;;;5.64;82.68
34696;BME280;20918;51.138;17.370;2022-10-31T05:16:46;100613.84;;;5.64;82.64
34696;BME280;20918;51.138;17.370;2022-10-31T05:20:06;100612.52;;;5.64;82.67
34696;BME280;20918;51.138;17.370;2022-10-31T05:23:09;100610.72;;;5.65;82.66
34696;BME280;20918;51.138;17.370;2022-10-31T05:26:10;100615.98;;;5.65;82.71
34696;BME280;20918;51.138;17.370;2022-10-31T05:29:11;100613.84;;;5.64;82.75
34696;BME280;20918;51.138;17.370;2022-10-31T05:32:13;100618.13;;;5.65;82.72
34696;BME280;20918;51.138;17.370;2022-10-31T05:35:30;100621.36;;;5.63;82.51
34696;BME280;20918;51.138;17.370;2022-10-31T05:38:43;100618.62;;;5.59;82.73
34696;BME280;20918;51.138;17.370;2022-10-31T05:41:46;100615.90;;;5.55;82.63
34696;BME280;20918;51.138;17.370;2022-10-31T05:44:52;100624.49;;;5.51;82.81
34696;BME280;20918;51.138;17.370;2022-10-31T05:48:00;100623.19;;;5.46;82.88
34696;BME280;20918;51.138;17.370;2022-10-31T05:51:12;100623.81;;;5.44;82.90
34696;BME280;20918;51.138;17.370;2022-10-31T05:54:13;100624.16;;;5.45;82.81
34696;BME280;20918;51.138;17.370;2022-10-31T05:57:15;100623.09;;;5.42;82.73
34696;BME280;20918;51.138;17.370;2022-10-31T06:00:16;100622.61;;;5.36;82.86
34696;BME280;20918;51.138;17.370;2022-10-31T06:03:23;100632.16;;;5.37;82.84
34696;BME280;20918;51.138;17.370;2022-10-31T06:06:26;100635.28;;;5.37;82.99
34696;BME280;20918;51.138;17.370;2022-10-31T06:09:28;100628.70;;;5.37;83.05
34696;BME280;20918;51.138;17.370;2022-10-31T06:12:30;100629.77;;;5.46;83.29
34696;BME280;20918;51.138;17.370;2022-10-31T06:15:47;100628.20;;;5.54;83.51
34696;BME280;20918;51.138;17.370;2022-10-31T06:18:48;100634.98;;;5.74;83.84
34696;BME280;20918;51.138;17.370;2022-10-31T06:21:50;100629.01;;;5.94;83.89
34696;BME280;20918;51.138;17.370;2022-10-31T06:24:52;100634.20;;;6.17;83.71
34696;BME280;20918;51.138;17.370;2022-10-31T06:28:10;100639.75;;;6.35;83.49
34696;BME280;20918;51.138;17.370;2022-10-31T06:31:22;100641.64;;;6.65;83.70
34696;BME280;20918;51.138;17.370;2022-10-31T06:34:24;100646.33;;;6.98;83.85
34696;BME280;20918;51.138;17.370;2022-10-31T06:37:25;100648.49;;;7.29;83.83
34696;BME280;20918;51.138;17.370;2022-10-31T06:40:28;100650.55;;;7.56;83.33
34696;BME280;20918;51.138;17.370;2022-10-31T06:43:34;100657.16;;;7.81;83.20
34696;BME280;20918;51.138;17.370;2022-10-31T06:46:46;100653.94;;;8.12;83.19
34696;BME280;20918;51.138;17.370;2022-10-31T06:50:00;100661.00;;;8.46;83.02
34696;BME280;20918;51.138;17.370;2022-10-31T06:53:01;100664.10;;;8.85;83.01
34696;BME280;20918;51.138;17.370;2022-10-31T06:56:03;100662.56;;;9.15;82.53
34696;BME280;20918;51.138;17.370;2022-10-31T06:59:06;100666.31;;;9.36;82.20
34696;BME280;20918;51.138;17.370;2022-10-31T07:02:22;100669.41;;;9.59;82.31
34696;BME280;20918;51.138;17.370;2022-10-31T07:05:24;100671.83;;;9.80;82.11
34696;BME280;20918;51.138;17.370;2022-10-31T07:08:26;100665.09;;;10.00;81.81
34696;BME280;20918;51.138;17.370;2022-10-31T07:11:27;100665.09;;;10.00;81.81
34696;BME280;20918;51.138;17.370;2022-10-31T07:14:29;100673.57;;;10.03;81.55
34696;BME280;20918;51.138;17.370;2022-10-31T07:17:30;100675.62;;;10.09;81.66
34696;BME280;20918;51.138;17.370;2022-10-31T07:20:33;100677.44;;;10.09;81.70
34696;BME280;20918;51.138;17.370;2022-10-31T07:23:36;100678.80;;;10.13;82.06
34696;BME280;20918;51.138;17.370;2022-10-31T07:26:45;100685.30;;;10.28;82.04
34696;BME280;20918;51.138;17.370;2022-10-31T07:29:48;100679.71;;;10.36;82.01
34696;BME280;20918;51.138;17.370;2022-10-31T07:32:50;100685.97;;;10.48;82.08
34696;BME280;20918;51.138;17.370;2022-10-31T07:35:53;100691.07;;;10.64;82.10
34696;BME280;20918;51.138;17.370;2022-10-31T07:38:56;100687.08;;;10.82;82.23
34696;BME280;20918;51.138;17.370;2022-10-31T07:41:59;100681.92;;;11.06;82.21
34696;BME280;20918;51.138;17.370;2022-10-31T07:45:00;100685.47;;;11.41;82.20
34696;BME280;20918;51.138;17.370;2022-10-31T07:48:16;100679.12;;;11.76;81.93
34696;BME280;20918;51.138;17.370;2022-10-31T07:51:35;100691.09;;;12.23;81.70
34696;BME280;20918;51.138;17.370;2022-10-31T07:54:36;100685.47;;;12.75;81.33
34696;BME280;20918;51.138;17.370;2022-10-31T07:57:42;100676.91;;;13.20;81.15
34696;BME280;20918;51.138;17.370;2022-10-31T08:00:45;100689.81;;;13.68;80.76
34696;BME280;20918;51.138;17.370;2022-10-31T08:03:48;100684.88;;;14.16;80.35
34696;BME280;20918;51.138;17.370;2022-10-31T08:07:06;100684.07;;;14.65;79.49
34696;BME280;20918;51.138;17.370;2022-10-31T08:10:09;100688.72;;;15.05;78.76
34696;BME280;20918;51.138;17.370;2022-10-31T08:13:12;100685.66;;;15.42;78.01
34696;BME280;20918;51.138;17.370;2022-10-31T08:16:16;100685.98;;;15.73;77.44
34696;BME280;20918;51.138;17.370;2022-10-31T08:19:19;100682.06;;;16.16;77.47
34696;BME280;20918;51.138;17.370;2022-10-31T08:22:20;100685.59;;;16.59;76.43
34696;BME280;20918;51.138;17.370;2022-10-31T08:25:22;100681.56;;;16.80;75.52
34696;BME280;20918;51.138;17.370;2022-10-31T08:28:25;100687.88;;;17.12;75.12
34696;BME280;20918;51.138;17.370;2022-10-31T08:31:27;100683.53;;;17.39;74.39
34696;BME280;20918;51.138;17.370;2022-10-31T08:34:48;100689.87;;;17.66;73.95
34696;BME280;20918;51.138;17.370;2022-10-31T08:38:10;100693.44;;;17.97;73.51
34696;BME280;20918;51.138;17.370;2022-10-31T08:41:13;100692.08;;;18.34;73.12
34696;BME280;20918;51.138;17.370;2022-10-31T08:44:15;100688.70;;;18.56;71.75
34696;BME280;20918;51.138;17.370;2022-10-31T08:47:17;100689.66;;;18.73;71.25
34696;BME280;20918;51.138;17.370;2022-10-31T08:50:19;100688.66;;;18.87;71.05
34696;BME280;20918;51.138;17.370;2022-10-31T08:53:22;100693.38;;;19.05;70.40
34696;BME280;20918;51.138;17.370;2022-10-31T08:56:25;100684.98;;;19.17;69.82
34696;BME280;20918;51.138;17.370;2022-10-31T08:59:26;100681.75;;;19.31;68.50
34696;BME280;20918;51.138;17.370;2022-10-31T09:02:35;100679.39;;;19.32;68.37
34696;BME280;20918;51.138;17.370;2022-10-31T09:05:38;100683.59;;;19.44;67.93
34696;BME280;20918;51.138;17.370;2022-10-31T09:08:42;100679.62;;;19.60;67.18
34696;BME280;20918;51.138;17.370;2022-10-31T09:11:45;100683.95;;;19.61;66.82
34696;BME280;20918;51.138;17.370;2022-10-31T09:14:51;100674.95;;;19.71;66.10
34696;BME280;20918;51.138;17.370;2022-10-31T09:17:55;100679.33;;;19.65;64.95
34696;BME280;20918;51.138;17.370;2022-10-31T09:21:00;100681.46;;;19.59;65.05
34696;BME280;20918;51.138;17.370;2022-10-31T09:24:04;100684.05;;;19.57;64.69
34696;BME280;20918;51.138;17.370;2022-10-31T09:27:06;100682.61;;;19.61;64.07
34696;BME280;20918;51.138;17.370;2022-10-31T09:30:11;100688.62;;;19.56;63.56
34696;BME280;20918;51.138;17.370;2022-10-31T09:33:14;100682.84;;;19.53;62.65
34696;BME280;20918;51.138;17.370;2022-10-31T09:36:17;100685.56;;;19.46;62.46
34696;BME280;20918;51.138;17.370;2022-10-31T09:39:20;100682.45;;;19.49;62.72
34696;BME280;20918;51.138;17.370;2022-10-31T09:53:07;100688.71;;;19.72;62.01
34696;BME280;20918;51.138;17.370;2022-10-31T09:56:15;100682.47;;;19.78;62.05
34696;BME280;20918;51.138;17.370;2022-10-31T09:59:31;100684.72;;;19.88;61.80
34696;BME280;20918;51.138;17.370;2022-10-31T10:02:40;100685.78;;;19.80;61.31
34696;BME280;20918;51.138;17.370;2022-10-31T10:06:14;100683.23;;;19.92;61.36
34696;BME280;20918;51.138;17.370;2022-10-31T10:09:36;100688.19;;;19.95;61.01
34696;BME280;20918;51.138;17.370;2022-10-31T10:13:25;100687.81;;;20.07;60.72
34696;BME280;20918;51.138;17.370;2022-10-31T10:26:41;100683.83;;;20.32;59.91
34696;BME280;20918;51.138;17.370;2022-10-31T10:29:50;100683.19;;;20.37;59.89
34696;BME280;20918;51.138;17.370;2022-10-31T10:33:03;100686.39;;;20.59;59.78
34696;BME280;20918;51.138;17.370;2022-10-31T10:36:21;100680.03;;;20.63;58.79
34696;BME280;20918;51.138;17.370;2022-10-31T10:39:30;100676.14;;;20.58;58.89
34696;BME280;20918;51.138;17.370;2022-10-31T10:42:36;100671.50;;;20.50;58.83
34696;BME280;20918;51.138;17.370;2022-10-31T10:46:00;100670.45;;;20.51;58.86
34696;BME280;20918;51.138;17.370;2022-10-31T10:59:56;100658.48;;;20.72;58.94
34696;BME280;20918;51.138;17.370;2022-10-31T11:03:00;100660.16;;;20.73;58.52
34696;BME280;20918;51.138;17.370;2022-10-31T11:06:01;100660.59;;;20.70;58.45
34696;BME280;20918;51.138;17.370;2022-10-31T11:09:10;100653.70;;;20.74;58.45
34696;BME280;20918;51.138;17.370;2022-10-31T11:12:34;100653.50;;;20.75;58.21
34696;BME280;20918;51.138;17.370;2022-10-31T11:15:39;100656.40;;;20.74;58.34
34696;BME280;20918;51.138;17.370;2022-10-31T11:18:45;100651.72;;;20.88;58.32
34696;BME280;20918;51.138;17.370;2022-10-31T11:21:48;100654.95;;;20.96;58.22
34696;BME280;20918;51.138;17.370;2022-10-31T11:24:53;100644.69;;;20.96;57.81
34696;BME280;20918;51.138;17.370;2022-10-31T11:28:01;100649.47;;;20.94;57.71
34696;BME280;20918;51.138;17.370;2022-10-31T11:31:11;100641.63;;;20.92;57.51
34696;BME280;20918;51.138;17.370;2022-10-31T11:34:32;100637.70;;;20.88;57.59
34696;BME280;20918;51.138;17.370;2022-10-31T11:37:41;100644.45;;;20.88;57.78
34696;BME280;20918;51.138;17.370;2022-10-31T11:41:15;100638.02;;;20.89;57.67
34696;BME280;20918;51.138;17.370;2022-10-31T11:44:23;100638.69;;;20.94;57.58
34696;BME280;20918;51.138;17.370;2022-10-31T11:47:31;100638.40;;;21.02;57.66
34696;BME280;20918;51.138;17.370;2022-10-31T11:50:40;100640.28;;;21.11;56.99
34696;BME280;20918;51.138;17.370;2022-10-31T11:53:49;100629.48;;;21.01;56.68
34696;BME280;20918;51.138;17.370;2022-10-31T11:56:51;100635.91;;;21.00;57.18
34696;BME280;20918;51.138;17.370;2022-10-31T11:59:55;100635.41;;;21.10;57.17
34696;BME280;20918;51.138;17.370;2022-10-31T12:06:35;100637.08;;;21.30;57.04
34696;BME280;20918;51.138;17.370;2022-10-31T12:09:35;100637.53;;;21.26;56.88
34696;BME280;20918;51.138;17.370;2022-10-31T12:12:49;100633.31;;;21.31;56.97
34696;BME280;20918;51.138;17.370;2022-10-31T12:16:00;100633.95;;;21.42;57.33
34696;BME280;20918;51.138;17.370;2022-10-31T12:19:17;100638.05;;;21.54;56.92
34696;BME280;20918;51.138;17.370;2022-10-31T12:26:19;100630.34;;;21.48;56.13
34696;BME280;20918;51.138;17.370;2022-10-31T12:33:15;100630.79;;;21.45;56.77
34696;BME280;20918;51.138;17.370;2022-10-31T12:36:38;100623.97;;;21.42;56.56
34696;BME280;20918;51.138;17.370;2022-10-31T12:57:38;100622.08;;;21.15;56.47
34696;BME280;20918;51.138;17.370;2022-10-31T13:00:43;100623.27;;;21.10;56.67
34696;BME280;20918;51.138;17.370;2022-10-31T13:07:27;100613.75;;;21.17;57.07
34696;BME280;20918;51.138;17.370;2022-10-31T13:10:47;100616.29;;;21.12;56.76
34696;BME280;20918;51.138;17.370;2022-10-31T13:17:35;100607.45;;;20.95;56.80
34696;BME280;20918;51.138;17.370;2022-10-31T13:20:42;100602.52;;;20.92;57.04
34696;BME280;20918;51.138;17.370;2022-10-31T13:23:46;100600.27;;;20.89;57.17
34696;BME280;20918;51.138;17.370;2022-10-31T13:26:53;100603.37;;;20.77;57.16
34696;BME280;20918;51.138;17.370;2022-10-31T13:36:34;100598.06;;;20.89;57.85
34696;BME280;20918;51.138;17.370;2022-10-31T13:40:01;100597.56;;;20.89;57.55
34696;BME280;20918;51.138;17.370;2022-10-31T13:43:35;100599.33;;;20.77;57.74
34696;BME280;20918;51.138;17.370;2022-10-31T13:46:39;100590.94;;;20.67;57.82
34696;BME280;20918;51.138;17.370;2022-10-31T13:49:41;100590.45;;;20.60;57.88
34696;BME280;20918;51.138;17.370;2022-10-31T13:52:42;100592.20;;;20.48;58.12
34696;BME280;20918;51.138;17.370;2022-10-31T13:59:20;100593.97;;;20.36;58.49
34696;BME280;20918;51.138;17.370;2022-10-31T14:02:26;100591.75;;;20.26;58.55
34696;BME280;20918;51.138;17.370;2022-10-31T14:05:34;100590.98;;;20.19;58.67
34696;BME280;20918;51.138;17.370;2022-10-31T14:08:39;100586.77;;;20.14;58.79
34696;BME280;20918;51.138;17.370;2022-10-31T14:11:44;100587.80;;;20.13;58.80
34696;BME280;20918;51.138;17.370;2022-10-31T14:14:49;100578.59;;;20.11;59.01
34696;BME280;20918;51.138;17.370;2022-10-31T14:18:02;100581.20;;;20.09;59.02
34696;BME280;20918;51.138;17.370;2022-10-31T14:24:32;100587.49;;;19.96;59.20
34696;BME280;20918;51.138;17.370;2022-10-31T14:27:43;100582.98;;;19.90;59.32
34696;BME280;20918;51.138;17.370;2022-10-31T14:30:56;100580.05;;;19.82;59.39
34696;BME280;20918;51.138;17.370;2022-10-31T14:34:01;100580.59;;;19.75;59.50
34696;BME280;20918;51.138;17.370;2022-10-31T14:37:55;100576.06;;;19.62;59.65
34696;BME280;20918;51.138;17.370;2022-10-31T14:51:46;100571.71;;;19.16;60.87
34696;BME280;20918;51.138;17.370;2022-10-31T14:54:52;100573.19;;;19.06;61.09
34696;BME280;20918;51.138;17.370;2022-10-31T14:58:04;100570.42;;;18.96;61.28
34696;BME280;20918;51.138;17.370;2022-10-31T15:01:21;100566.84;;;18.87;61.37
34696;BME280;20918;51.138;17.370;2022-10-31T15:04:28;100571.81;;;18.76;61.52
34696;BME280;20918;51.138;17.370;2022-10-31T15:07:33;100571.27;;;18.64;61.71
34696;BME280;20918;51.138;17.370;2022-10-31T15:10:37;100571.41;;;18.53;61.82
34696;BME280;20918;51.138;17.370;2022-10-31T15:13:49;100572.33;;;18.43;62.01
34696;BME280;20918;51.138;17.370;2022-10-31T15:16:55;100571.52;;;18.22;62.18
34696;BME280;20918;51.138;17.370;2022-10-31T15:20:04;100581.61;;;18.00;62.53
34696;BME280;20918;51.138;17.370;2022-10-31T15:23:09;100565.77;;;17.81;62.83
34696;BME280;20918;51.138;17.370;2022-10-31T15:26:16;100578.29;;;17.67;63.11
34696;BME280;20918;51.138;17.370;2022-10-31T15:29:23;100586.09;;;17.49;63.30
34696;BME280;20918;51.138;17.370;2022-10-31T15:32:27;100585.39;;;17.34;63.58
34696;BME280;20918;51.138;17.370;2022-10-31T15:35:30;100584.84;;;17.03;63.86
34696;BME280;20918;51.138;17.370;2022-10-31T15:38:32;100582.98;;;16.76;64.42
34696;BME280;20918;51.138;17.370;2022-10-31T15:41:36;100587.06;;;16.44;64.87
34696;BME280;20918;51.138;17.370;2022-10-31T15:44:42;100582.44;;;16.20;65.37
34696;BME280;20918;51.138;17.370;2022-10-31T15:47:46;100589.59;;;16.02;65.49
34696;BME280;20918;51.138;17.370;2022-10-31T15:51:05;100588.75;;;15.80;66.13
34696;BME280;20918;51.138;17.370;2022-10-31T15:54:10;100590.23;;;15.68;66.11
34696;BME280;20918;51.138;17.370;2022-10-31T15:57:13;100591.27;;;15.52;65.94
34696;BME280;20918;51.138;17.370;2022-10-31T16:03:31;100593.42;;;15.27;67.00
34696;BME280;20918;51.138;17.370;2022-10-31T16:06:34;100592.05;;;15.16;67.44
34696;BME280;20918;51.138;17.370;2022-10-31T16:09:35;100592.96;;;15.09;67.56
34696;BME280;20918;51.138;17.370;2022-10-31T16:12:42;100605.93;;;15.01;67.81
34696;BME280;20918;51.138;17.370;2022-10-31T16:15:51;100599.19;;;14.90;68.15
34696;BME280;20918;51.138;17.370;2022-10-31T16:18:56;100608.25;;;14.70;68.65
34696;BME280;20918;51.138;17.370;2022-10-31T16:22:06;100606.58;;;14.46;69.23
34696;BME280;20918;51.138;17.370;2022-10-31T16:25:28;100598.17;;;14.34;69.62
34696;BME280;20918;51.138;17.370;2022-10-31T16:28:32;100605.73;;;14.27;69.54
34696;BME280;20918;51.138;17.370;2022-10-31T16:31:39;100599.69;;;14.10;70.00
34696;BME280;20918;51.138;17.370;2022-10-31T16:34:40;100597.78;;;14.00;70.36
34696;BME280;20918;51.138;17.370;2022-10-31T16:37:42;100600.86;;;13.88;70.81
34696;BME280;20918;51.138;17.370;2022-10-31T16:40:44;100600.28;;;13.74;71.38
34696;BME280;20918;51.138;17.370;2022-10-31T16:43:46;100605.50;;;13.59;71.95
34696;BME280;20918;51.138;17.370;2022-10-31T16:46:47;100610.43;;;13.39;71.98
34696;BME280;20918;51.138;17.370;2022-10-31T16:49:49;100611.00;;;13.27;72.14
34696;BME280;20918;51.138;17.370;2022-10-31T16:52:51;100608.34;;;13.06;71.57
34696;BME280;20918;51.138;17.370;2022-10-31T16:55:56;100600.91;;;12.93;72.84
34696;BME280;20918;51.138;17.370;2022-10-31T16:59:01;100611.08;;;12.90;72.61
34696;BME280;20918;51.138;17.370;2022-10-31T17:02:04;100611.57;;;12.85;72.41
34696;BME280;20918;51.138;17.370;2022-10-31T17:05:12;100608.92;;;12.69;73.00
34696;BME280;20918;51.138;17.370;2022-10-31T17:08:15;100607.45;;;12.54;74.02
34696;BME280;20918;51.138;17.370;2022-10-31T17:11:21;100609.78;;;12.49;74.39
34696;BME280;20918;51.138;17.370;2022-10-31T17:14:25;100606.14;;;12.42;73.81
34696;BME280;20918;51.138;17.370;2022-10-31T17:17:26;100604.45;;;12.32;74.36
34696;BME280;20918;51.138;17.370;2022-10-31T17:20:29;100610.30;;;12.28;74.40
34696;BME280;20918;51.138;17.370;2022-10-31T17:23:36;100609.29;;;12.17;74.94
34696;BME280;20918;51.138;17.370;2022-10-31T17:26:38;100609.94;;;12.06;75.36
34696;BME280;20918;51.138;17.370;2022-10-31T17:29:40;100615.42;;;11.97;75.60
34696;BME280;20918;51.138;17.370;2022-10-31T17:32:41;100607.55;;;11.83;76.11
34696;BME280;20918;51.138;17.370;2022-10-31T17:35:43;100608.85;;;11.75;76.48
34696;BME280;20918;51.138;17.370;2022-10-31T17:38:45;100599.67;;;11.65;76.59
34696;BME280;20918;51.138;17.370;2022-10-31T17:41:50;100595.66;;;11.57;76.89
34696;BME280;20918;51.138;17.370;2022-10-31T17:44:52;100600.30;;;11.51;76.47
34696;BME280;20918;51.138;17.370;2022-10-31T17:47:53;100600.41;;;11.33;76.28
34696;BME280;20918;51.138;17.370;2022-10-31T17:50:58;100606.69;;;11.24;76.93
34696;BME280;20918;51.138;17.370;2022-10-31T17:54:00;100600.19;;;11.22;77.13
34696;BME280;20918;51.138;17.370;2022-10-31T17:57:01;100596.84;;;11.20;77.43
34696;BME280;20918;51.138;17.370;2022-10-31T18:00:06;100597.02;;;11.18;77.23
34696;BME280;20918;51.138;17.370;2022-10-31T18:03:12;100595.98;;;11.11;76.57
34696;BME280;20918;51.138;17.370;2022-10-31T18:06:13;100601.92;;;11.01;76.09
34696;BME280;20918;51.138;17.370;2022-10-31T18:09:16;100603.66;;;10.88;76.02